Terminal Aerodrome Forecast
Issued by NWS

Home | Current Version | Previous Version | Text Only | Print | Product List | Glossary On
Versions: 1 2 3 4 5 6 7 8 9 10 11 12 13
621
FTUS42 TJSJ 051731
TAFIST
TAF
TIST 051731Z 0518/0618 13014KT P6SM VCSH FEW025 SCT040
     FM052230 10009KT P6SM SCT060
     FM060600 09007KT P6SM VCSH FEW020 SCT040
     FM061400 15014KT P6SM SCT030=

USA.gov is the U.S. government's official web portal to all federal, state and local government web resources and services.